Terminal Aerodrome Forecast
Issued by NWS

Home | Current Version | Previous Version | Text Only | Print | Product List | Glossary On
Versions: 1 2 3 4 5 6 7 8 9 10 11 12 13
008
FTUS46 KMFR 162349
TAFOTH
TAF
KOTH 162349Z 1700/1724 24005KT P6SM BKN140 BKN250
     FM170600 16009KT P6SM FEW100 BKN140 BKN250
     FM171200 17010KT P6SM VCSH FEW020 SCT080 OVC100 WS020/21045KT
     FM171800 17011KT P6SM -RA SCT025 OVC035 WS020/19050KT=

USA.gov is the U.S. government's official web portal to all federal, state and local government web resources and services.